Time;durP1;ratioP1;P1;durP2;ratioP2;P2;SDS_P1;SDS_P2;PMS_P1;PMS_P2;Temp;Humidity;BMP_temperature;BMP_pressure;BME280_temperature;BME280_humidity;BME280_pressure;Samples;Min_cycle;Max_cycle;Signal;HPM_P1;HPM_P2
2023/06/03 00:00:06;;;;;;;9.18;3.38;;;;;;;12.71;79.67;101750.91;5020522;28;20053;-69
2023/06/03 00:02:31;;;;;;;13.45;4.38;;;;;;;12.70;79.61;101757.09;5020334;28;20440;-69
2023/06/03 00:05:01;;;;;;;11.15;4.03;;;;;;;12.65;80.13;101749.72;5019222;28;20040;-69
2023/06/03 00:07:26;;;;;;;10.65;3.70;;;;;;;12.61;80.08;101748.38;5019666;28;20377;-69
2023/06/03 00:09:52;;;;;;;8.88;3.53;;;;;;;12.57;80.39;101755.66;5004317;28;20048;-68
2023/06/03 00:12:17;;;;;;;7.93;3.65;;;;;;;12.56;80.94;101758.38;4998849;28;20029;-69
2023/06/03 00:14:43;;;;;;;10.82;3.65;;;;;;;12.53;80.94;101756.91;5018181;28;20045;-69
2023/06/03 00:17:11;;;;;;;9.60;3.50;;;;;;;12.52;81.65;101757.06;5003860;28;20317;-69
2023/06/03 00:19:40;;;;;;;6.85;3.00;;;;;;;12.49;81.52;101755.56;5018851;28;20075;-69
2023/06/03 00:22:06;;;;;;;9.57;3.78;;;;;;;12.46;81.78;101758.44;5002049;28;20036;-69
2023/06/03 00:24:32;;;;;;;10.15;3.70;;;;;;;12.42;81.75;101760.53;5003656;28;20060;-69
2023/06/03 00:26:58;;;;;;;7.00;3.38;;;;;;;12.39;82.03;101757.38;5000550;28;20080;-69
2023/06/03 00:29:24;;;;;;;10.93;4.30;;;;;;;12.36;82.13;101760.28;5003893;28;20033;-69
2023/06/03 00:31:50;;;;;;;10.50;3.80;;;;;;;12.33;82.38;101760.56;5001847;28;20383;-69
2023/06/03 00:34:16;;;;;;;10.27;3.78;;;;;;;12.31;82.35;101752.91;4985954;28;20042;-69
2023/06/03 00:36:42;;;;;;;8.93;3.78;;;;;;;12.26;82.78;101755.09;5002370;28;20116;-69
2023/06/03 00:39:08;;;;;;;9.95;3.67;;;;;;;12.23;83.13;101758.03;5000057;28;20045;-69
2023/06/03 00:41:34;;;;;;;11.57;4.10;;;;;;;12.21;83.16;101752.94;5023132;28;20060;-69
2023/06/03 00:44:00;;;;;;;11.45;4.63;;;;;;;12.21;83.10;101762.53;4988518;28;20041;-68
2023/06/03 00:46:26;;;;;;;10.07;4.05;;;;;;;12.18;83.36;101752.41;4987134;28;20029;-68
2023/06/03 00:48:52;;;;;;;12.93;3.55;;;;;;;12.16;83.27;101749.97;4992987;28;20813;-69
2023/06/03 00:51:18;;;;;;;11.70;3.78;;;;;;;12.13;83.40;101745.06;5010844;28;20033;-68
2023/06/03 00:53:45;;;;;;;13.90;4.18;;;;;;;12.13;83.65;101749.41;5005052;28;20049;-69
2023/06/03 00:56:12;;;;;;;10.95;3.97;;;;;;;12.10;84.08;101749.72;4998379;28;20483;-69
2023/06/03 00:58:38;;;;;;;9.30;3.88;;;;;;;12.08;84.02;101752.47;4996844;28;20056;-69
2023/06/03 01:01:03;;;;;;;10.73;4.10;;;;;;;12.06;83.83;101754.38;4980408;28;20033;-68
2023/06/03 01:03:29;;;;;;;13.07;4.50;;;;;;;12.02;84.29;101745.25;4998459;28;20118;-69
2023/06/03 01:06:22;;;;;;;11.80;4.38;;;;;;;11.98;84.76;101746.47;4978823;28;20041;-68
2023/06/03 01:08:50;;;;;;;;;;;;;;;11.94;84.96;101745.94;4984976;28;20045;-68
2023/06/03 01:11:41;;;;;;;12.77;3.95;;;;;;;11.92;85.23;101747.84;4995563;28;20015;-68
2023/06/03 01:14:15;;;;;;;15.13;3.88;;;;;;;11.88;86.04;101744.72;4976777;28;20050;-68
2023/06/03 01:16:44;;;;;;;12.85;4.15;;;;;;;11.86;85.98;101744.00;5010669;28;20037;-68
2023/06/03 01:19:50;;;;;;;11.65;4.75;;;;;;;11.85;85.90;101746.75;5001853;28;20045;-68
2023/06/03 01:22:18;;;;;;;14.68;4.50;;;;;;;11.85;86.30;101742.38;4993726;28;20038;-69
2023/06/03 01:24:45;;;;;;;12.82;4.13;;;;;;;11.80;86.65;101744.56;5011204;28;20041;-68
2023/06/03 01:27:12;;;;;;;11.38;4.55;;;;;;;11.77;86.82;101744.88;4998142;28;20872;-68
2023/06/03 01:29:38;;;;;;;10.88;4.75;;;;;;;11.82;86.98;101737.44;4981943;28;20504;-68
2023/06/03 01:32:04;;;;;;;15.07;4.78;;;;;;;11.82;86.90;101736.66;4991121;28;20040;-68
2023/06/03 01:34:31;;;;;;;12.18;4.40;;;;;;;11.82;87.18;101744.44;5019308;28;20052;-69
2023/06/03 01:36:57;;;;;;;19.75;4.40;;;;;;;11.78;87.34;101740.50;4988122;28;20069;-69
2023/06/03 01:39:23;;;;;;;9.50;4.07;;;;;;;11.72;87.38;101741.88;4983948;28;20144;-69
2023/06/03 01:41:51;;;;;;;10.88;3.90;;;;;;;11.71;87.52;101742.81;5003893;28;20319;-68
2023/06/03 01:44:16;;;;;;;10.95;4.60;;;;;;;11.67;87.85;101741.47;4998840;28;20042;-69
2023/06/03 01:46:42;;;;;;;9.05;4.03;;;;;;;11.64;87.93;101747.78;5013604;28;20048;-69
2023/06/03 01:49:08;;;;;;;9.48;4.57;;;;;;;11.64;87.91;101745.19;4995093;28;20071;-69
2023/06/03 01:51:33;;;;;;;12.90;4.82;;;;;;;11.63;88.12;101742.72;4998032;28;20028;-68
2023/06/03 01:53:59;;;;;;;11.60;4.30;;;;;;;11.62;88.27;101743.66;4997338;28;20045;-68
2023/06/03 01:56:25;;;;;;;13.25;4.63;;;;;;;11.59;87.76;101751.75;4995904;28;20040;-68
2023/06/03 01:58:51;;;;;;;11.13;4.75;;;;;;;11.56;88.04;101750.22;4996323;28;20049;-68
2023/06/03 02:01:17;;;;;;;10.02;4.60;;;;;;;11.54;88.07;101749.53;4995123;28;20407;-68
2023/06/03 02:03:42;;;;;;;11.85;4.57;;;;;;;11.52;88.36;101750.66;4996272;28;20041;-68
2023/06/03 02:06:08;;;;;;;8.90;3.85;;;;;;;11.48;88.60;101739.72;4995798;28;20036;-68
2023/06/03 02:08:36;;;;;;;10.23;4.45;;;;;;;11.45;88.83;101750.38;5017743;28;20160;-68
2023/06/03 02:11:02;;;;;;;11.82;4.18;;;;;;;11.43;88.76;101742.75;5002653;28;20491;-68
2023/06/03 02:13:29;;;;;;;10.75;4.18;;;;;;;11.42;89.27;101741.09;4995993;28;20108;-68
2023/06/03 02:15:54;;;;;;;9.48;4.43;;;;;;;11.40;89.34;101750.81;4981957;28;20025;-68
2023/06/03 02:18:20;;;;;;;13.45;5.00;;;;;;;11.39;89.20;101743.97;4995508;28;20033;-68
2023/06/03 02:20:46;;;;;;;16.63;5.10;;;;;;;11.39;88.98;101749.16;5001622;28;20079;-68
2023/06/03 02:23:12;;;;;;;12.93;5.20;;;;;;;11.37;88.77;101745.88;5017329;28;20450;-69
2023/06/03 02:25:38;;;;;;;9.57;4.50;;;;;;;11.35;89.12;101742.59;4986550;28;20021;-68
2023/06/03 02:28:04;;;;;;;14.13;4.68;;;;;;;11.32;89.26;101750.69;5028603;23;20041;-69
2023/06/03 02:30:30;;;;;;;12.25;4.70;;;;;;;11.32;89.30;101749.84;5011681;28;20037;-68
2023/06/03 02:32:56;;;;;;;8.70;4.15;;;;;;;11.28;89.51;101739.75;5015878;28;20049;-69
2023/06/03 02:35:23;;;;;;;9.45;4.47;;;;;;;11.26;89.72;101740.81;5018713;28;20521;-68
2023/06/03 02:37:48;;;;;;;11.20;4.28;;;;;;;11.24;89.55;101740.16;5021672;28;20029;-68
2023/06/03 02:40:14;;;;;;;11.60;4.82;;;;;;;11.23;89.62;101743.72;5019656;28;20518;-68
2023/06/03 02:42:40;;;;;;;11.55;4.05;;;;;;;11.20;89.35;101741.38;5007112;28;20021;-68
2023/06/03 02:45:08;;;;;;;10.85;4.25;;;;;;;11.20;89.57;101749.97;5013625;28;20111;-68
2023/06/03 02:47:34;;;;;;;11.18;4.93;;;;;;;11.19;89.48;101750.97;5017856;28;20136;-69
2023/06/03 02:49:59;;;;;;;10.20;4.47;;;;;;;11.17;89.59;101750.28;5020580;28;20041;-68
2023/06/03 02:52:25;;;;;;;11.35;5.53;;;;;;;11.17;89.68;101754.63;5020231;28;20056;-68
2023/06/03 02:54:51;;;;;;;10.75;4.90;;;;;;;11.15;89.55;101751.34;5020649;28;20036;-68
2023/06/03 02:57:17;;;;;;;12.68;4.65;;;;;;;11.15;89.35;101752.19;5019162;28;20033;-68
2023/06/03 02:59:42;;;;;;;12.00;4.50;;;;;;;11.11;89.38;101753.41;5002745;28;20041;-68
2023/06/03 03:02:08;;;;;;;13.73;4.50;;;;;;;11.08;89.91;101761.47;5021915;28;20478;-68
2023/06/03 03:04:36;;;;;;;13.55;4.72;;;;;;;11.05;90.12;101759.94;5033450;28;20049;-68
2023/06/03 03:07:08;;;;;;;12.63;4.80;;;;;;;11.05;89.89;101759.94;5017564;28;20376;-68
2023/06/03 03:09:34;;;;;;;13.37;4.57;;;;;;;11.03;89.68;101761.88;5003134;28;20112;-68
2023/06/03 03:12:00;;;;;;;14.60;4.75;;;;;;;11.02;90.15;101768.03;5017910;28;20330;-68
2023/06/03 03:14:26;;;;;;;12.70;5.05;;;;;;;10.97;90.01;101765.00;5004451;28;20123;-68
2023/06/03 03:16:53;;;;;;;10.27;4.35;;;;;;;10.96;90.21;101775.50;5019834;28;20032;-68
2023/06/03 03:19:18;;;;;;;13.77;4.75;;;;;;;10.94;90.37;101767.84;5019218;28;20056;-68
2023/06/03 03:21:44;;;;;;;13.88;5.07;;;;;;;10.95;90.74;101766.91;5031964;28;20186;-68
2023/06/03 03:24:15;;;;;;;9.73;4.68;;;;;;;10.91;90.76;101774.16;5019171;28;20056;-68
2023/06/03 03:26:42;;;;;;;12.32;4.82;;;;;;;10.89;91.12;101770.06;5014270;28;20032;-68
2023/06/03 03:29:08;;;;;;;15.50;5.10;;;;;;;10.87;91.30;101770.19;5031681;28;20055;-68
2023/06/03 03:31:34;;;;;;;13.25;4.40;;;;;;;10.88;91.57;101773.59;5019355;28;20387;-68
2023/06/03 03:34:02;;;;;;;10.13;5.50;;;;;;;10.86;91.24;101770.31;5018378;28;20044;-68
2023/06/03 03:36:28;;;;;;;13.95;5.50;;;;;;;10.83;92.13;101775.75;5020453;28;20384;-68
2023/06/03 03:39:05;;;;;;;14.48;5.65;;;;;;;10.83;91.99;101775.75;5001921;28;20047;-68
2023/06/03 03:41:42;;;;;;;9.93;4.78;;;;;;;10.83;92.17;101768.81;5003101;28;20389;-68
2023/06/03 03:44:08;;;;;;;17.58;5.70;;;;;;;10.85;91.84;101761.72;5017656;28;20664;-68
2023/06/03 03:46:33;;;;;;;12.88;5.32;;;;;;;10.82;92.21;101761.16;5015585;28;20130;-68
2023/06/03 03:49:00;;;;;;;14.60;4.93;;;;;;;10.79;92.41;101771.81;5020897;28;20464;-68
2023/06/03 03:51:25;;;;;;;10.32;4.80;;;;;;;10.78;92.23;101767.59;5017605;28;20024;-68
2023/06/03 03:53:51;;;;;;;12.95;5.32;;;;;;;10.81;92.13;101770.72;5010754;28;20045;-68
2023/06/03 03:56:25;;;;;;;20.10;6.18;;;;;;;10.78;92.48;101772.78;5020711;28;20074;-68
2023/06/03 03:58:55;;;;;;;14.85;5.30;;;;;;;10.76;92.43;101772.09;5015937;28;20052;-68
2023/06/03 04:01:28;;;;;;;10.35;5.03;;;;;;;10.73;92.83;101778.34;5002836;28;20036;-68
2023/06/03 04:04:05;;;;;;;10.45;5.13;;;;;;;10.74;92.82;101774.81;4998058;28;20041;-68
2023/06/03 04:06:36;;;;;;;13.05;5.03;;;;;;;10.77;92.92;101777.13;5019960;28;20148;-68
2023/06/03 04:09:07;;;;;;;16.85;5.35;;;;;;;10.81;92.84;101783.69;5017084;28;20400;-68
2023/06/03 04:11:42;;;;;;;11.43;4.82;;;;;;;10.81;92.62;101777.66;5000674;28;20036;-68
2023/06/03 04:14:15;;;;;;;10.70;4.88;;;;;;;10.82;92.57;101784.50;5032122;28;20053;-68
2023/06/03 04:16:53;;;;;;;14.10;5.22;;;;;;;10.82;92.61;101780.13;5017290;28;20367;-68
2023/06/03 04:19:30;;;;;;;15.32;5.25;;;;;;;10.82;92.50;101795.72;5018439;28;21841;-68
2023/06/03 04:21:58;;;;;;;13.77;4.93;;;;;;;10.82;92.66;101793.13;5019689;28;20037;-68
2023/06/03 04:24:25;;;;;;;9.80;4.97;;;;;;;10.83;92.86;101783.53;5013304;28;20045;-68
2023/06/03 04:26:51;;;;;;;14.10;5.40;;;;;;;10.86;92.71;101793.66;5020731;28;20321;-68
2023/06/03 04:29:17;;;;;;;11.85;5.55;;;;;;;10.86;92.81;101784.09;5018782;28;20045;-68
2023/06/03 04:31:43;;;;;;;15.43;5.38;;;;;;;10.91;92.41;101791.50;5017478;28;20036;-68
2023/06/03 04:34:08;;;;;;;15.68;5.40;;;;;;;11.04;91.29;101783.47;5030757;28;20041;-68
2023/06/03 04:36:35;;;;;;;14.20;5.13;;;;;;;11.05;91.61;101782.50;5017966;28;20025;-68
2023/06/03 04:39:04;;;;;;;11.27;5.15;;;;;;;11.01;91.63;101786.31;5006240;28;20045;-68
2023/06/03 04:41:32;;;;;;;12.20;5.15;;;;;;;11.01;91.54;101789.72;5020990;28;20040;-68
2023/06/03 04:44:02;;;;;;;11.70;4.75;;;;;;;11.07;91.42;101784.00;5032941;28;20086;-68
2023/06/03 04:46:29;;;;;;;13.32;4.57;;;;;;;11.11;90.79;101774.16;5025019;28;20291;-68
2023/06/03 04:48:57;;;;;;;10.63;4.70;;;;;;;11.13;90.92;101782.63;5020785;28;20548;-68
2023/06/03 04:51:27;;;;;;;14.70;5.30;;;;;;;11.20;90.83;101788.94;5022692;28;20090;-68
2023/06/03 04:53:55;;;;;;;13.38;5.30;;;;;;;11.24;90.24;101777.31;5021004;28;20072;-68
2023/06/03 04:56:21;;;;;;;13.43;5.25;;;;;;;11.32;89.38;101779.25;5035263;28;20307;-68
2023/06/03 04:58:47;;;;;;;12.10;4.85;;;;;;;11.33;89.11;101783.47;5037130;28;20589;-68
2023/06/03 05:01:22;;;;;;;17.50;6.13;;;;;;;11.46;88.39;101785.78;5016358;28;20493;-68
2023/06/03 05:03:48;;;;;;;10.93;5.00;;;;;;;11.47;87.84;101783.06;5021577;28;20103;-68
2023/06/03 05:06:14;;;;;;;10.68;4.40;;;;;;;11.56;87.13;101780.59;5023460;28;20038;-68
2023/06/03 05:08:41;;;;;;;13.93;4.47;;;;;;;11.64;86.83;101783.31;5020537;28;20053;-68
2023/06/03 05:11:07;;;;;;;14.13;4.95;;;;;;;11.62;86.34;101778.28;5004674;28;20045;-68
2023/06/03 05:13:34;;;;;;;15.38;4.85;;;;;;;11.72;86.18;101786.03;5015199;28;20057;-68
2023/06/03 05:16:00;;;;;;;15.60;5.25;;;;;;;11.80;85.33;101793.13;5023316;28;20021;-68
2023/06/03 05:18:26;;;;;;;9.75;4.38;;;;;;;11.87;84.57;101781.22;5017398;28;20068;-68
2023/06/03 05:20:52;;;;;;;10.43;4.57;;;;;;;12.00;83.27;101773.97;5018266;28;20482;-68
2023/06/03 05:23:18;;;;;;;8.93;4.38;;;;;;;12.11;82.86;101777.34;5021366;28;20053;-68
2023/06/03 05:25:43;;;;;;;12.07;4.15;;;;;;;12.21;81.72;101772.94;5024344;28;20025;-68
2023/06/03 05:28:11;;;;;;;9.32;3.28;;;;;;;12.31;81.76;101778.91;5004233;28;20564;-69
2023/06/03 05:30:37;;;;;;;9.80;3.83;;;;;;;12.39;81.21;101776.41;5020151;28;20128;-68
2023/06/03 05:33:05;;;;;;;7.97;3.75;;;;;;;12.53;80.96;101776.91;5020864;28;20033;-68
2023/06/03 05:35:31;;;;;;;9.15;3.63;;;;;;;12.61;77.40;101772.59;5022184;28;20041;-68
2023/06/03 05:37:57;;;;;;;10.13;3.75;;;;;;;12.68;76.22;101778.06;5006420;28;20021;-69
2023/06/03 05:40:23;;;;;;;7.47;3.83;;;;;;;12.72;76.33;101773.38;5018224;28;20045;-68
2023/06/03 05:42:48;;;;;;;10.23;3.50;;;;;;;12.91;76.58;101783.66;5032129;28;20562;-68
2023/06/03 05:45:16;;;;;;;6.55;3.33;;;;;;;13.12;74.96;101772.13;5020899;28;20431;-68
2023/06/03 05:47:42;;;;;;;9.98;2.88;;;;;;;13.29;72.75;101770.50;5005152;28;20028;-68
2023/06/03 05:50:08;;;;;;;9.45;3.45;;;;;;;13.46;71.07;101776.69;5018288;28;20495;-68
2023/06/03 05:52:34;;;;;;;9.35;3.63;;;;;;;13.66;71.17;101769.50;5016072;28;20345;-68
2023/06/03 05:54:59;;;;;;;7.97;2.88;;;;;;;13.75;67.64;101772.03;5018968;28;20511;-68
2023/06/03 05:57:26;;;;;;;7.82;2.75;;;;;;;13.92;67.45;101761.66;5021439;28;20143;-68
2023/06/03 05:59:52;;;;;;;9.73;2.60;;;;;;;13.96;68.40;101768.22;5016617;28;20396;-68
2023/06/03 06:02:21;;;;;;;8.88;2.60;;;;;;;14.00;66.30;101772.16;5020700;28;20029;-68
2023/06/03 06:04:47;;;;;;;8.35;2.95;;;;;;;14.13;65.90;101771.75;5019672;28;20036;-68
2023/06/03 06:07:12;;;;;;;5.93;2.53;;;;;;;14.42;64.99;101771.38;5020094;28;20059;-68
2023/06/03 06:09:38;;;;;;;6.20;2.10;;;;;;;14.67;64.43;101768.84;5004402;28;20044;-68
2023/06/03 06:12:04;;;;;;;4.75;2.38;;;;;;;14.76;62.66;101768.72;5015750;28;20476;-68
2023/06/03 06:14:30;;;;;;;5.10;2.08;;;;;;;14.91;61.71;101770.72;5013947;28;20053;-68
2023/06/03 06:16:56;;;;;;;5.00;2.22;;;;;;;15.12;61.40;101768.44;5015387;28;20554;-68
2023/06/03 06:19:23;;;;;;;7.97;2.22;;;;;;;15.26;59.46;101774.03;5005946;28;20507;-69
2023/06/03 06:21:49;;;;;;;6.18;2.30;;;;;;;15.42;58.36;101775.78;5019009;28;20033;-68
2023/06/03 06:24:16;;;;;;;17.45;2.53;;;;;;;15.46;57.50;101775.28;5018754;28;20047;-68
2023/06/03 06:26:44;;;;;;;7.93;2.05;;;;;;;15.74;56.95;101777.59;5018564;28;20059;-68
2023/06/03 06:29:09;;;;;;;7.35;2.35;;;;;;;15.99;58.11;101788.81;5029032;28;20072;-68
2023/06/03 06:31:35;;;;;;;4.97;2.22;;;;;;;16.17;55.01;101778.13;5019708;28;20033;-68
2023/06/03 06:34:02;;;;;;;8.73;1.90;;;;;;;16.28;54.31;101776.94;5017489;28;20049;-69
2023/06/03 06:36:49;;;;;;;5.43;1.90;;;;;;;16.34;54.00;101784.91;5021245;28;20390;-69
2023/06/03 06:39:55;;;;;;;8.00;2.53;;;;;;;16.49;53.08;101779.78;5020427;28;20551;-68
2023/06/03 06:42:39;;;;;;;9.43;2.20;;;;;;;16.68;50.87;101783.78;5003216;28;20044;-69
2023/06/03 06:45:28;;;;;;;7.65;2.10;;;;;;;17.11;51.43;101776.31;5021258;28;20546;-69
2023/06/03 06:47:57;;;;;;;5.95;1.70;;;;;;;17.47;50.14;101772.28;5018573;28;20494;-69
2023/06/03 06:50:46;;;;;;;7.68;1.58;;;;;;;17.85;50.69;101770.44;5005688;28;20040;-68
2023/06/03 06:53:14;;;;;;;2.92;1.67;;;;;;;18.32;49.10;101771.03;5014758;28;20045;-69
2023/06/03 06:55:48;;;;;;;6.90;2.40;;;;;;;18.67;46.85;101779.13;5015016;28;20640;-69
2023/06/03 06:58:16;;;;;;;3.22;1.60;;;;;;;18.71;45.22;101779.56;5013349;28;20143;-69
2023/06/03 07:00:42;;;;;;;4.90;1.52;;;;;;;18.58;45.41;101772.34;5027850;28;20037;-69
2023/06/03 07:03:09;;;;;;;5.18;1.60;;;;;;;18.53;45.68;101775.50;5011113;28;20338;-69
2023/06/03 07:05:35;;;;;;;3.33;1.30;;;;;;;18.81;45.45;101778.28;5016687;28;20382;-69
2023/06/03 07:08:01;;;;;;;6.50;1.50;;;;;;;19.01;45.08;101772.41;5027735;28;20437;-69
2023/06/03 07:10:28;;;;;;;7.82;1.60;;;;;;;19.33;44.25;101773.69;5015033;28;20076;-69
2023/06/03 07:12:55;;;;;;;3.08;1.35;;;;;;;19.86;43.81;101773.25;5017827;28;20060;-70
2023/06/03 07:15:22;;;;;;;6.50;1.65;;;;;;;20.09;42.09;101770.34;5003842;28;20017;-69
2023/06/03 07:17:52;;;;;;;3.85;1.52;;;;;;;20.37;42.23;101767.59;5021285;28;20509;-69
2023/06/03 07:20:46;;;;;;;4.80;1.70;;;;;;;19.92;42.21;101769.84;5016258;28;20081;-69
2023/06/03 07:23:18;;;;;;;2.88;1.30;;;;;;;20.42;41.14;101759.13;5013238;28;20051;-69
2023/06/03 07:25:46;;;;;;;6.40;1.63;;;;;;;20.21;40.77;101771.41;5017575;28;20044;-69
2023/06/03 07:28:20;;;;;;;5.40;1.90;;;;;;;20.40;40.89;101767.22;5015385;28;20060;-69
2023/06/03 07:30:47;;;;;;;3.28;1.30;;;;;;;20.49;39.22;101761.78;5002076;28;20030;-69
2023/06/03 07:33:27;;;;;;;4.80;1.45;;;;;;;19.89;39.57;101775.50;5013631;28;20049;-69
2023/06/03 07:35:59;;;;;;;9.93;1.80;;;;;;;20.48;39.28;101766.22;5029804;28;20503;-69
2023/06/03 07:38:36;;;;;;;15.18;1.65;;;;;;;20.45;39.85;101771.88;5011441;28;20602;-69
2023/06/03 07:41:03;;;;;;;7.50;1.50;;;;;;;20.59;39.25;101764.84;5017060;28;20034;-69
2023/06/03 07:43:28;;;;;;;8.32;1.67;;;;;;;20.63;38.87;101760.03;5015040;28;20057;-70
2023/06/03 07:45:54;;;;;;;9.65;1.70;;;;;;;21.06;38.07;101759.66;5012247;28;20040;-69
2023/06/03 07:48:20;;;;;;;6.05;1.58;;;;;;;21.06;37.07;101760.47;5019520;28;20040;-69
2023/06/03 07:50:47;;;;;;;7.78;1.95;;;;;;;21.06;37.56;101757.84;5017975;28;20097;-69
2023/06/03 07:53:21;;;;;;;5.00;1.35;;;;;;;21.45;37.23;101758.03;5035723;28;20496;-69
2023/06/03 07:55:47;;;;;;;9.13;1.60;;;;;;;21.52;36.84;101753.56;5007624;28;20041;-69
2023/06/03 07:58:14;;;;;;;11.85;1.70;;;;;;;21.22;36.69;101753.97;5013420;28;20150;-69
2023/06/03 08:00:43;;;;;;;5.60;1.70;;;;;;;21.31;35.97;101752.75;5034750;28;20082;-69
2023/06/03 08:03:15;;;;;;;5.05;1.70;;;;;;;21.70;37.41;101750.28;5035567;28;20071;-70
2023/06/03 08:05:41;;;;;;;4.55;1.73;;;;;;;22.15;36.52;101750.31;5035654;28;20399;-69
2023/06/03 08:08:12;;;;;;;6.93;1.55;;;;;;;21.91;36.62;101752.66;5034345;28;20033;-69
2023/06/03 08:10:38;;;;;;;3.00;1.20;;;;;;;22.48;35.31;101752.03;5038274;28;20033;-69
2023/06/03 08:13:05;;;;;;;3.97;1.25;;;;;;;22.37;34.02;101745.56;5019252;28;20380;-70
2023/06/03 08:15:35;;;;;;;5.03;1.48;;;;;;;21.91;34.44;101746.59;5037961;28;20028;-70
2023/06/03 08:18:07;;;;;;;3.80;1.63;;;;;;;22.25;34.73;101739.31;5016456;28;20123;-70
2023/06/03 08:20:35;;;;;;;6.90;1.90;;;;;;;22.05;34.87;101739.41;5034149;28;20040;-69
2023/06/03 08:23:02;;;;;;;4.85;1.60;;;;;;;22.83;35.37;101741.84;5021101;28;20462;-70
2023/06/03 08:25:28;;;;;;;4.43;1.30;;;;;;;23.22;34.10;101741.75;5024914;28;20083;-69
2023/06/03 08:27:54;;;;;;;6.15;1.42;;;;;;;22.48;33.38;101739.63;5023220;28;20033;-70
2023/06/03 08:30:20;;;;;;;12.35;1.80;;;;;;;22.99;33.57;101737.84;5021196;28;20044;-70
2023/06/03 08:32:48;;;;;;;7.63;1.67;;;;;;;23.22;33.73;101734.59;5024095;28;20498;-69
2023/06/03 08:35:19;;;;;;;7.63;1.75;;;;;;;23.15;32.83;101733.88;5023931;28;20537;-70
2023/06/03 08:37:44;;;;;;;8.52;1.95;;;;;;;22.77;33.97;101741.88;5038928;28;20033;-70
2023/06/03 08:40:11;;;;;;;5.65;1.70;;;;;;;23.05;33.44;101737.00;5039200;28;20045;-69
2023/06/03 08:42:43;;;;;;;6.32;1.20;;;;;;;22.66;33.58;101740.72;5025483;28;20056;-70
2023/06/03 08:45:10;;;;;;;5.25;1.98;;;;;;;22.12;33.22;101740.19;5040842;28;20110;-69
2023/06/03 08:48:05;;;;;;;5.07;1.42;;;;;;;22.45;34.84;101729.50;5041301;28;20036;-69
2023/06/03 08:50:36;;;;;;;5.63;1.08;;;;;;;23.35;34.37;101731.03;5038083;28;20538;-69
2023/06/03 08:53:08;;;;;;;4.10;1.67;;;;;;;22.81;33.82;101724.56;5038928;28;20491;-70
2023/06/03 08:55:34;;;;;;;3.13;1.05;;;;;;;23.01;32.25;101729.69;5020116;28;20037;-69
2023/06/03 08:58:25;;;;;;;4.93;1.15;;;;;;;23.54;33.11;101731.06;5034695;28;20028;-69
2023/06/03 09:00:59;;;;;;;4.10;1.50;;;;;;;23.46;32.74;101727.66;5039236;28;20495;-69
2023/06/03 09:03:25;;;;;;;8.75;1.27;;;;;;;22.88;32.77;101730.59;5037013;28;20044;-69
2023/06/03 09:05:53;;;;;;;4.93;1.00;;;;;;;22.43;32.67;101736.00;5040477;28;20033;-70
2023/06/03 09:08:19;;;;;;;7.40;1.45;;;;;;;22.65;32.73;101732.00;5020259;28;20040;-70
2023/06/03 09:10:46;;;;;;;2.88;1.20;;;;;;;22.59;33.13;101735.50;5040630;28;20103;-69
2023/06/03 09:13:13;;;;;;;6.53;1.05;;;;;;;23.21;32.63;101733.00;4997615;28;20053;-70
2023/06/03 09:15:41;;;;;;;6.93;1.17;;;;;;;22.41;31.57;101735.41;5024780;28;20314;-69
2023/06/03 09:18:06;;;;;;;4.85;1.00;;;;;;;22.66;32.68;101746.84;5036007;28;20140;-69
2023/06/03 09:20:35;;;;;;;7.47;1.80;;;;;;;22.15;33.04;101739.75;5005896;28;20033;-69
2023/06/03 09:23:01;;;;;;;5.28;1.08;;;;;;;22.78;32.94;101751.44;5002599;28;20060;-69
2023/06/03 09:25:26;;;;;;;6.55;0.90;;;;;;;23.03;32.75;101748.78;5038021;28;20240;-69
2023/06/03 09:27:53;;;;;;;3.75;1.00;;;;;;;22.58;33.24;101749.72;5020324;28;20475;-70
2023/06/03 09:30:18;;;;;;;2.75;0.90;;;;;;;22.92;33.04;101739.72;5009021;28;20041;-70
2023/06/03 09:32:44;;;;;;;6.22;1.17;;;;;;;22.91;31.77;101738.91;5024040;28;20033;-69
2023/06/03 09:35:10;;;;;;;7.38;1.20;;;;;;;22.82;32.46;101745.50;5020956;28;20045;-69
2023/06/03 09:37:36;;;;;;;4.88;1.48;;;;;;;23.02;32.79;101749.81;5035816;28;20574;-69
2023/06/03 09:40:09;;;;;;;5.80;1.77;;;;;;;23.43;32.36;101740.53;5004741;28;20087;-69
2023/06/03 09:42:41;;;;;;;2.58;1.05;;;;;;;23.34;31.70;101737.38;5017653;28;20234;-69
2023/06/03 09:45:07;;;;;;;;;;;;;;;22.97;31.95;101744.38;5023753;28;20098;-70
2023/06/03 09:47:38;;;;;;;4.85;1.10;;;;;;;22.12;32.56;101734.91;5039690;28;20442;-69
2023/06/03 09:50:06;;;;;;;3.00;1.10;;;;;;;22.66;33.25;101744.19;5003374;28;20386;-70
2023/06/03 09:52:33;;;;;;;1.67;0.98;;;;;;;22.59;31.84;101746.06;5036509;28;20063;-69
2023/06/03 09:55:03;;;;;;;1.67;0.90;;;;;;;22.78;32.82;101746.16;5029853;28;20053;-70
2023/06/03 09:57:29;;;;;;;2.80;0.88;;;;;;;23.04;31.94;101731.94;5018177;28;20037;-69
2023/06/03 10:00:10;;;;;;;1.92;1.15;;;;;;;23.33;31.10;101731.25;5006267;28;20044;-69
2023/06/03 10:02:44;;;;;;;9.32;1.15;;;;;;;23.94;33.17;101731.44;5019969;28;20037;-69
2023/06/03 10:05:26;;;;;;;4.20;1.00;;;;;;;23.45;30.89;101739.28;5022061;28;20183;-69
2023/06/03 10:07:51;;;;;;;2.00;1.30;;;;;;;23.62;31.90;101734.22;5021200;28;20207;-69
2023/06/03 10:10:17;;;;;;;6.28;1.42;;;;;;;23.90;30.65;101738.19;5038145;28;20452;-69
2023/06/03 10:12:44;;;;;;;6.82;1.70;;;;;;;24.24;32.28;101736.75;5020954;28;20127;-70
2023/06/03 10:15:10;;;;;;;4.15;1.30;;;;;;;24.17;29.94;101729.94;5005559;28;20086;-70
2023/06/03 10:17:44;;;;;;;4.25;1.20;;;;;;;23.92;32.16;101745.94;5036672;28;20033;-70
2023/06/03 10:20:10;;;;;;;3.03;1.33;;;;;;;23.78;30.51;101732.81;5037440;28;20053;-70
2023/06/03 10:22:39;;;;;;;9.93;1.40;;;;;;;23.80;30.29;101732.63;5037783;28;20053;-70
2023/06/03 10:25:07;;;;;;;4.50;1.20;;;;;;;24.39;31.44;101739.00;5012848;28;20790;-70
2023/06/03 10:27:33;;;;;;;7.03;1.25;;;;;;;23.59;30.39;101725.91;5005590;28;20409;-70
2023/06/03 10:29:59;;;;;;;4.32;1.30;;;;;;;23.36;31.28;101734.47;5016482;28;20495;-70
2023/06/03 10:32:26;;;;;;;3.38;1.00;;;;;;;23.49;31.98;101723.78;5022358;28;20040;-70
2023/06/03 10:34:53;;;;;;;10.02;1.27;;;;;;;23.61;31.10;101726.50;5019481;28;20587;-70
2023/06/03 10:37:19;;;;;;;11.43;2.70;;;;;;;24.02;31.64;101719.75;5035039;28;20454;-70
2023/06/03 10:39:45;;;;;;;10.23;1.27;;;;;;;24.31;31.78;101719.97;5035792;28;20083;-70
2023/06/03 10:42:12;;;;;;;3.08;1.10;;;;;;;24.56;32.09;101725.91;5037187;28;20029;-70
2023/06/03 10:44:38;;;;;;;8.13;2.03;;;;;;;24.60;29.58;101720.97;5034561;28;20461;-69
2023/06/03 10:47:06;;;;;;;3.88;1.35;;;;;;;24.46;31.90;101731.75;5034061;28;20443;-69
2023/06/03 10:49:37;;;;;;;7.60;1.50;;;;;;;24.46;31.17;101723.78;5018944;28;20571;-70
2023/06/03 10:52:16;;;;;;;4.03;1.08;;;;;;;24.14;30.61;101736.47;5015361;28;20566;-70
2023/06/03 10:54:57;;;;;;;6.10;1.55;;;;;;;24.11;30.76;101742.25;5019466;28;20052;-69
2023/06/03 10:57:32;;;;;;;5.00;1.30;;;;;;;24.06;32.14;101740.25;5020646;28;20034;-69
2023/06/03 10:59:57;;;;;;;4.53;1.10;;;;;;;23.73;30.95;101731.84;5004919;28;20095;-69
2023/06/03 11:02:23;;;;;;;7.88;1.40;;;;;;;23.48;31.36;101738.03;5037227;28;20033;-69
2023/06/03 11:05:24;;;;;;;4.88;1.40;;;;;;;23.49;31.11;101732.53;5040524;28;20049;-70
2023/06/03 11:07:49;;;;;;;10.65;1.60;;;;;;;23.96;31.37;101724.09;5035059;28;20031;-70
2023/06/03 11:10:34;;;;;;;4.28;1.00;;;;;;;23.66;31.86;101731.94;5018359;28;20052;-70
2023/06/03 11:12:59;;;;;;;4.65;1.70;;;;;;;23.09;31.90;101730.28;5032843;28;20037;-70
2023/06/03 11:16:00;;;;;;;4.38;1.20;;;;;;;23.51;31.63;101730.47;5017270;28;20106;-69
2023/06/03 11:18:30;;;;;;;5.53;1.48;;;;;;;23.49;31.16;101726.44;5033754;28;20140;-70
2023/06/03 11:20:56;;;;;;;6.05;1.30;;;;;;;23.39;32.13;101724.25;5034051;28;20037;-69
2023/06/03 11:23:40;;;;;;;1.83;1.15;;;;;;;23.50;32.26;101718.25;5002030;28;20033;-70
2023/06/03 11:26:35;;;;;;;4.95;1.38;;;;;;;23.66;30.55;101718.72;5035324;28;20064;-70
2023/06/03 11:29:05;;;;;;;2.92;1.40;;;;;;;23.93;31.68;101715.78;5006177;28;20079;-69